TFM - Tactical Decision Aid
ID: Runway Winds: CIG/VIS Threshold:

KABE - Allentown/Lehigh Val, PA, US

Updated at: 1923 UTC 07 Dec 2021
Latest TAF at: 1737 UTC 07 Dec 2021

TAF Board

Time<<08/08Z 08/09Z 08/10Z 08/11Z 08/12Z 08/13Z 08/14Z 08/15Z 08/16Z 08/17Z 08/18Z 08/19Z 08/20Z>>
Type PRVL PRVL PRVL PRVL PRVL PRVL PRVL PRVL PRVL PRVL
VIS >6 >6 >6 >6 >6 >6 >6 >6 >6 >6
CIG 150 150 150 150 150 150 150 150 150 70
Cover OVC OVC OVC OVC OVC OVC OVC OVC OVC BKN
FltCat VFR VFR VFR VFR VFR VFR VFR VFR VFR VFR
WX -- -- -- -- -- -- -- -- -- --
WDir VRB VRB VRB VRB VRB VRB VRB VRB VRB VRB
WSpd 0 0 0 0 0 0 0 0 0 3
WGst -- -- -- -- -- -- -- -- -- --
WSHgt -- -- -- -- -- -- -- -- -- --
WSDir -- -- -- -- -- -- -- -- -- --
WSSpd -- -- -- -- -- -- -- -- -- --

TDA Impact Legend

  None Marginal Slight Moderate High
Visibility (sm) >5 3≤X≤5 2≤X<3 0.5≤X<2 <0.5
Ceiling (100 ft) >30 10≤X≤30 6≤X<10 2≤X<6 <2
Wind Speed (kt) <15 15≤X<25 25≤X<30 ≥30
Wind Gust (kt) <15 15≤X<25 25≤X<35 ≥35
Weather No Wx Reported VCTS -TS,-FZRA TS,FZRA +TS,+FZRA
TAF
KABE 071737Z 0718/0818 27007KT P6SM SCT050 SCT200
  FM072200 VRB04KT P6SM BKN200
  FM080500 00000KT P6SM OVC150
  FM081700 VRB03KT P6SM BKN070


Radar Display
Forecast Discussion